Time;durP1;ratioP1;P1;durP2;ratioP2;P2;SDS_P1;SDS_P2;PMS_P1;PMS_P2;Temp;Humidity;BMP_temperature;BMP_pressure;BME280_temperature;BME280_humidity;BME280_pressure;Samples;Min_cycle;Max_cycle;Signal;HPM_P1;HPM_P2
2022/08/14 00:01:15;;;;;;;112.03;33.83;;;;;;;;;;6189160;28;20057;-81
2022/08/14 00:04:15;;;;;;;53.23;31.77;;;;;;;;;;6192295;28;20027;-81
2022/08/14 00:07:15;;;;;;;80.88;32.53;;;;;;;;;;6189408;28;20382;-81
2022/08/14 00:10:18;;;;;;;68.93;27.23;;;;;;;;;;6198760;28;20026;-81
2022/08/14 00:13:18;;;;;;;65.05;30.17;;;;;;;;;;6185677;28;20037;-82
2022/08/14 00:16:19;;;;;;;114.33;30.70;;;;;;;;;;6187089;28;20034;-81
2022/08/14 00:19:19;;;;;;;72.60;29.03;;;;;;;;;;6192991;28;20293;-81
2022/08/14 00:22:20;;;;;;;79.37;31.03;;;;;;;;;;6189452;28;20022;-81
2022/08/14 00:25:20;;;;;;;73.53;26.97;;;;;;;;;;6188063;28;20014;-81
2022/08/14 00:28:25;;;;;;;73.10;27.83;;;;;;;;;;6193475;28;20023;-81
2022/08/14 00:31:26;;;;;;;63.65;29.40;;;;;;;;;;6190722;28;20551;-81
2022/08/14 00:34:26;;;;;;;72.20;30.60;;;;;;;;;;6193747;28;20026;-81
2022/08/14 00:37:28;;;;;;;80.73;29.73;;;;;;;;;;6186959;28;20045;-80
2022/08/14 00:40:28;;;;;;;66.10;32.83;;;;;;;;;;6177215;28;20031;-81
2022/08/14 00:43:29;;;;;;;68.50;30.20;;;;;;;;;;6193699;28;20011;-81
2022/08/14 00:46:29;;;;;;;76.63;34.63;;;;;;;;;;6188160;28;20031;-80
2022/08/14 00:49:31;;;;;;;84.27;38.43;;;;;;;;;;6194317;28;20112;-81
2022/08/14 00:52:31;;;;;;;60.75;27.80;;;;;;;;;;6187746;28;20024;-81
2022/08/14 00:55:33;;;;;;;76.63;29.50;;;;;;;;;;6173611;28;20035;-82
2022/08/14 00:58:33;;;;;;;;;;;;;;;;;;6186356;28;20093;-81
2022/08/14 01:01:35;;;;;;;64.70;27.50;;;;;;;;;;6209358;28;19917;-81
2022/08/14 01:04:37;;;;;;;73.22;31.65;;;;;;;;;;6196978;28;20525;-81
2022/08/14 01:07:37;;;;;;;;;;;;;;;;;;6190593;28;20034;-82
2022/08/14 01:10:49;;;;;;;56.55;27.00;;;;;;;;;;6194331;28;19910;-82
2022/08/14 01:13:51;;;;;;;70.18;27.45;;;;;;;;;;6196504;28;20026;-82
2022/08/14 01:16:52;;;;;;;61.13;26.58;;;;;;;;;;6184854;28;20372;-82
2022/08/14 01:23:13;;;;;;;69.30;27.73;;;;;;;;;;6190686;28;20379;-82
2022/08/14 01:26:14;;;;;;;72.88;32.20;;;;;;;;;;6187680;28;20018;-83
2022/08/14 01:29:14;;;;;;;;;;;;;;;;;;6194907;28;20552;-82
2022/08/14 01:32:17;;;;;;;61.75;29.05;;;;;;;;;;6182221;28;20374;-82
2022/08/14 01:35:17;;;;;;;64.93;29.35;;;;;;;;;;6199399;28;20066;-82
2022/08/14 01:38:17;;;;;;;69.90;32.57;;;;;;;;;;6185174;28;20418;-82
2022/08/14 01:41:19;;;;;;;76.40;33.10;;;;;;;;;;6183874;28;20022;-82
2022/08/14 01:44:21;;;;;;;;;;;;;;;;;;6192795;28;20049;-82
2022/08/14 01:47:21;;;;;;;49.10;26.20;;;;;;;;;;6192702;28;20004;-82
2022/08/14 01:50:21;;;;;;;71.33;32.40;;;;;;;;;;6184634;28;20029;-83
2022/08/14 01:53:21;;;;;;;63.93;29.90;;;;;;;;;;6191424;28;20060;-82
2022/08/14 01:56:32;;;;;;;63.13;32.73;;;;;;;;;;6187712;28;20190;-82
2022/08/14 01:59:33;;;;;;;69.10;31.10;;;;;;;;;;6182611;28;20023;-82
2022/08/14 02:02:33;;;;;;;68.95;29.23;;;;;;;;;;6187041;28;20094;-82
2022/08/14 02:05:34;;;;;;;65.57;28.90;;;;;;;;;;6184405;28;20018;-82
2022/08/14 02:08:36;;;;;;;77.63;33.97;;;;;;;;;;6188059;28;20439;-83
2022/08/14 02:11:37;;;;;;;65.00;32.05;;;;;;;;;;6193664;28;20053;-82
2022/08/14 02:14:37;;;;;;;66.03;30.03;;;;;;;;;;6197299;28;20074;-82
2022/08/14 02:17:37;;;;;;;59.27;29.67;;;;;;;;;;6197523;28;20032;-82
2022/08/14 02:20:38;;;;;;;78.43;34.83;;;;;;;;;;6200397;28;20015;-82
2022/08/14 02:23:39;;;;;;;72.07;31.77;;;;;;;;;;6201689;28;20046;-82
2022/08/14 02:26:41;;;;;;;71.95;31.85;;;;;;;;;;6188863;28;20399;-82
2022/08/14 02:29:42;;;;;;;65.82;28.65;;;;;;;;;;6203255;28;20018;-82
2022/08/14 02:32:42;;;;;;;61.43;30.60;;;;;;;;;;6199792;28;20823;-81
2022/08/14 02:35:43;;;;;;;61.60;28.47;;;;;;;;;;6201481;28;20041;-82
2022/08/14 02:38:43;;;;;;;55.43;30.07;;;;;;;;;;6198456;28;20029;-82
2022/08/14 02:41:43;;;;;;;69.97;33.13;;;;;;;;;;6192947;28;20018;-82
2022/08/14 02:44:43;;;;;;;58.10;31.90;;;;;;;;;;6200678;28;20026;-82
2022/08/14 02:47:44;;;;;;;70.40;36.57;;;;;;;;;;6197885;28;20023;-82
2022/08/14 02:50:44;;;;;;;69.37;33.93;;;;;;;;;;6190326;28;20022;-81
2022/08/14 02:53:45;;;;;;;63.30;31.40;;;;;;;;;;6195559;28;20062;-81
2022/08/14 02:56:45;;;;;;;70.13;31.37;;;;;;;;;;6193038;28;20093;-82
2022/08/14 02:59:45;;;;;;;69.47;33.40;;;;;;;;;;6198924;28;20019;-82
2022/08/14 03:02:45;;;;;;;76.37;33.47;;;;;;;;;;6191311;28;20034;-82
2022/08/14 03:05:46;;;;;;;60.67;30.90;;;;;;;;;;6200307;28;20010;-82
2022/08/14 03:08:47;;;;;;;73.40;37.40;;;;;;;;;;6187279;28;20515;-82
2022/08/14 03:11:47;;;;;;;60.78;32.05;;;;;;;;;;6197668;28;20441;-82
2022/08/14 03:14:49;;;;;;;62.63;30.90;;;;;;;;;;6195781;28;20030;-81
2022/08/14 03:17:51;;;;;;;60.05;31.88;;;;;;;;;;6186554;28;20050;-81
2022/08/14 03:20:51;;;;;;;73.38;34.85;;;;;;;;;;6177532;28;20050;-82
2022/08/14 03:27:12;;;;;;;65.35;33.38;;;;;;;;;;6185300;28;20031;-82
2022/08/14 03:30:13;;;;;;;61.22;31.38;;;;;;;;;;6191865;28;20054;-82
2022/08/14 03:33:14;;;;;;;58.40;31.73;;;;;;;;;;6192573;28;20407;-81
2022/08/14 03:36:15;;;;;;;60.40;34.17;;;;;;;;;;6192260;28;20026;-82
2022/08/14 03:39:17;;;;;;;56.72;30.05;;;;;;;;;;6195374;28;20027;-82
2022/08/14 03:42:17;;;;;;;54.60;29.60;;;;;;;;;;6195347;28;20475;-82
2022/08/14 03:45:17;;;;;;;52.10;30.33;;;;;;;;;;6198148;28;20029;-82
2022/08/14 03:48:18;;;;;;;54.30;28.70;;;;;;;;;;6197774;28;20467;-82
2022/08/14 03:51:19;;;;;;;65.60;29.77;;;;;;;;;;6196305;28;20109;-82
2022/08/14 03:54:20;;;;;;;51.28;30.27;;;;;;;;;;6194246;28;20549;-82
2022/08/14 03:57:20;;;;;;;61.63;28.90;;;;;;;;;;6191946;28;20050;-81
2022/08/14 04:00:20;;;;;;;66.03;32.40;;;;;;;;;;6196923;28;20100;-82
2022/08/14 04:03:23;;;;;;;61.40;30.07;;;;;;;;;;6198335;28;20022;-82
2022/08/14 04:06:23;;;;;;;56.05;28.90;;;;;;;;;;6193642;28;20050;-83
2022/08/14 04:09:24;;;;;;;49.60;27.87;;;;;;;;;;6195449;28;20037;-81
2022/08/14 04:12:24;;;;;;;49.53;27.57;;;;;;;;;;6197688;28;20113;-81
2022/08/14 04:15:25;;;;;;;53.77;27.93;;;;;;;;;;6196846;28;20029;-81
2022/08/14 04:18:25;;;;;;;45.67;23.58;;;;;;;;;;6199681;28;20112;-82
2022/08/14 04:21:29;;;;;;;50.23;27.90;;;;;;;;;;6187581;28;20023;-82
2022/08/14 04:24:33;;;;;;;49.28;26.73;;;;;;;;;;6191546;28;20110;-82
2022/08/14 04:27:34;;;;;;;52.15;27.83;;;;;;;;;;6196416;28;20022;-82
2022/08/14 04:30:38;;;;;;;49.83;28.17;;;;;;;;;;6191604;28;20570;-82
2022/08/14 04:33:38;;;;;;;47.60;29.13;;;;;;;;;;6196277;28;20046;-81
2022/08/14 04:43:34;;;;;;;51.00;28.40;;;;;;;;;;6195963;28;20030;-81
2022/08/14 04:43:37;;;;;;;56.53;29.77;;;;;;;;;;6187223;28;20018;-82
2022/08/14 04:46:37;;;;;;;61.53;28.85;;;;;;;;;;6185256;28;20021;-82
2022/08/14 04:49:37;;;;;;;64.10;27.97;;;;;;;;;;6197554;28;20030;-81
2022/08/14 04:52:37;;;;;;;62.00;28.33;;;;;;;;;;6192762;28;20466;-82
2022/08/14 04:55:39;;;;;;;64.93;29.87;;;;;;;;;;6196896;28;20097;-82
2022/08/14 04:58:41;;;;;;;56.50;27.75;;;;;;;;;;6187379;28;20053;-81
2022/08/14 05:01:43;;;;;;;53.35;26.40;;;;;;;;;;6198599;28;20049;-81
2022/08/14 05:04:43;;;;;;;49.75;25.90;;;;;;;;;;6185178;28;20014;-81
2022/08/14 05:07:44;;;;;;;52.20;27.43;;;;;;;;;;6181728;28;20029;-80
2022/08/14 05:10:45;;;;;;;49.13;24.70;;;;;;;;;;6189412;28;20018;-81
2022/08/14 05:13:46;;;;;;;46.97;25.80;;;;;;;;;;6192488;28;20026;-80
2022/08/14 05:16:46;;;;;;;54.00;26.60;;;;;;;;;;6185222;28;20065;-81
2022/08/14 05:19:47;;;;;;;47.47;24.53;;;;;;;;;;6187774;28;20025;-81
2022/08/14 05:22:48;;;;;;;53.73;24.17;;;;;;;;;;6189855;28;20026;-81
2022/08/14 05:25:50;;;;;;;51.07;26.13;;;;;;;;;;6191188;28;20025;-81
2022/08/14 05:28:50;;;;;;;49.55;27.30;;;;;;;;;;6195359;28;20402;-81
2022/08/14 05:31:50;;;;;;;41.93;24.37;;;;;;;;;;6193677;28;20030;-81
2022/08/14 05:34:50;;;;;;;41.78;22.33;;;;;;;;;;6193344;28;20032;-81
2022/08/14 05:37:50;;;;;;;51.50;22.05;;;;;;;;;;6193227;28;20026;-81
2022/08/14 05:40:51;;;;;;;47.63;22.97;;;;;;;;;;6191324;28;20101;-81
2022/08/14 05:43:51;;;;;;;43.83;21.63;;;;;;;;;;6180579;28;20015;-81
2022/08/14 05:46:51;;;;;;;54.07;26.23;;;;;;;;;;6190553;28;20030;-81
2022/08/14 05:49:52;;;;;;;41.20;23.33;;;;;;;;;;6192273;28;20478;-81
2022/08/14 05:52:53;;;;;;;64.80;29.60;;;;;;;;;;6198799;28;20045;-81
2022/08/14 05:55:54;;;;;;;58.25;30.58;;;;;;;;;;6193429;28;20109;-82
2022/08/14 05:58:54;;;;;;;51.95;27.17;;;;;;;;;;6200782;28;20029;-81
2022/08/14 06:01:54;;;;;;;63.33;29.57;;;;;;;;;;6190940;28;20062;-82
2022/08/14 06:04:55;;;;;;;47.40;28.40;;;;;;;;;;6194795;28;20501;-81
2022/08/14 06:07:56;;;;;;;57.40;28.57;;;;;;;;;;6191340;28;20026;-82
2022/08/14 06:11:02;;;;;;;50.60;24.85;;;;;;;;;;6192702;28;20026;-82
2022/08/14 06:14:02;;;;;;;48.10;22.65;;;;;;;;;;6193918;28;20030;-83
2022/08/14 06:17:03;;;;;;;40.67;21.53;;;;;;;;;;6192132;28;20030;-83
2022/08/14 06:20:03;;;;;;;46.80;22.57;;;;;;;;;;6197740;28;20030;-83
2022/08/14 06:23:04;;;;;;;37.73;18.67;;;;;;;;;;6199435;28;20085;-83
2022/08/14 06:26:04;;;;;;;37.43;17.93;;;;;;;;;;6191868;28;20498;-82
2022/08/14 06:29:04;;;;;;;32.20;17.33;;;;;;;;;;6195737;28;20152;-82
2022/08/14 06:32:04;;;;;;;27.03;15.17;;;;;;;;;;6197429;28;20018;-82
2022/08/14 06:35:05;;;;;;;33.50;14.97;;;;;;;;;;6194211;28;20022;-82
2022/08/14 06:38:06;;;;;;;35.30;18.08;;;;;;;;;;6201357;28;20477;-82
2022/08/14 06:41:06;;;;;;;38.60;18.10;;;;;;;;;;6185396;28;20034;-82
2022/08/14 06:44:07;;;;;;;31.90;16.00;;;;;;;;;;6195242;28;20022;-82
2022/08/14 06:47:07;;;;;;;27.93;16.47;;;;;;;;;;6198704;28;20444;-82
2022/08/14 06:50:09;;;;;;;31.00;18.00;;;;;;;;;;6198107;28;20057;-82
2022/08/14 06:53:10;;;;;;;;;;;;;;;;;;6192124;28;20022;-82
2022/08/14 06:56:12;;;;;;;32.25;18.42;;;;;;;;;;6201176;28;20365;-82
2022/08/14 06:59:15;;;;;;;34.90;17.10;;;;;;;;;;6190831;28;20018;-81
2022/08/14 07:05:47;;;;;;;29.40;17.05;;;;;;;;;;6191181;28;20055;-81
2022/08/14 07:08:47;;;;;;;27.92;16.05;;;;;;;;;;6187497;28;20019;-81
2022/08/14 07:11:48;;;;;;;27.07;15.97;;;;;;;;;;6189926;28;20057;-81
2022/08/14 07:14:48;;;;;;;33.57;16.37;;;;;;;;;;6192647;28;20150;-82
2022/08/14 07:17:49;;;;;;;27.67;15.70;;;;;;;;;;6194988;28;20049;-81
2022/08/14 07:20:50;;;;;;;21.70;13.55;;;;;;;;;;6188946;28;20057;-81
2022/08/14 07:23:50;;;;;;;25.40;13.23;;;;;;;;;;6193269;28;20077;-82
2022/08/14 07:26:50;;;;;;;23.17;13.10;;;;;;;;;;6197150;28;20430;-81
2022/08/14 07:29:50;;;;;;;21.33;11.93;;;;;;;;;;6192860;28;20105;-81
2022/08/14 07:32:50;;;;;;;21.23;13.18;;;;;;;;;;6195124;28;20109;-81
2022/08/14 07:35:52;;;;;;;22.13;11.83;;;;;;;;;;6192761;28;20026;-82
2022/08/14 07:38:52;;;;;;;17.55;10.48;;;;;;;;;;6194059;28;20029;-81
2022/08/14 07:41:52;;;;;;;25.97;13.27;;;;;;;;;;6194805;28;20787;-81
2022/08/14 07:44:52;;;;;;;20.47;10.80;;;;;;;;;;6193896;28;20015;-81
2022/08/14 07:47:56;;;;;;;23.03;11.70;;;;;;;;;;6188521;28;20022;-81
2022/08/14 07:50:58;;;;;;;16.90;8.90;;;;;;;;;;6194728;28;20033;-81
2022/08/14 07:53:58;;;;;;;15.10;10.60;;;;;;;;;;6193986;28;20364;-81
2022/08/14 07:56:59;;;;;;;15.43;7.30;;;;;;;;;;6193536;28;20042;-81
2022/08/14 08:00:00;;;;;;;14.18;8.75;;;;;;;;;;6193302;28;20022;-81
2022/08/14 08:03:02;;;;;;;14.02;7.53;;;;;;;;;;6194874;28;20173;-81
2022/08/14 08:06:03;;;;;;;14.82;6.95;;;;;;;;;;6192756;28;20621;-81
2022/08/14 08:09:03;;;;;;;11.70;7.50;;;;;;;;;;6192986;28;20333;-81
2022/08/14 08:12:04;;;;;;;13.67;6.90;;;;;;;;;;6195090;28;20081;-81
2022/08/14 08:15:05;;;;;;;12.45;6.90;;;;;;;;;;6190657;28;20018;-81
2022/08/14 08:18:06;;;;;;;10.77;6.90;;;;;;;;;;6187640;28;20077;-81
2022/08/14 08:21:07;;;;;;;12.30;7.82;;;;;;;;;;6192532;28;20038;-82
2022/08/14 08:24:07;;;;;;;16.42;8.35;;;;;;;;;;6193652;28;20487;-81
2022/08/14 08:27:15;;;;;;;13.13;6.75;;;;;;;;;;6187617;28;20023;-81
2022/08/14 08:30:16;;;;;;;15.07;7.63;;;;;;;;;;6185954;28;20046;-81
2022/08/14 08:33:18;;;;;;;11.57;7.47;;;;;;;;;;6180012;28;20029;-81
2022/08/14 08:36:19;;;;;;;9.13;5.93;;;;;;;;;;6194704;28;20018;-81
2022/08/14 08:39:19;;;;;;;9.55;5.20;;;;;;;;;;6193775;28;20018;-81
2022/08/14 08:42:25;;;;;;;7.13;5.43;;;;;;;;;;6196252;28;20033;-81
2022/08/14 08:45:26;;;;;;;8.95;4.97;;;;;;;;;;6195687;28;20015;-81
2022/08/14 08:48:30;;;;;;;9.07;4.57;;;;;;;;;;6192832;28;20436;-81
2022/08/14 08:51:31;;;;;;;8.80;4.47;;;;;;;;;;6196346;28;20181;-81
2022/08/14 08:54:32;;;;;;;5.55;3.35;;;;;;;;;;6199711;28;20026;-82
2022/08/14 08:57:34;;;;;;;6.83;3.53;;;;;;;;;;6195542;28;20153;-81
2022/08/14 09:00:36;;;;;;;6.60;2.88;;;;;;;;;;6191748;28;20054;-82
2022/08/14 09:03:36;;;;;;;;;;;;;;;;;;6188077;28;20018;-82
2022/08/14 09:06:43;;;;;;;4.68;3.17;;;;;;;;;;6200851;28;19916;-82
2022/08/14 09:09:53;;;;;;;5.10;2.80;;;;;;;;;;6191182;28;20014;-82
2022/08/14 09:12:54;;;;;;;5.40;3.38;;;;;;;;;;6196634;28;20494;-82
2022/08/14 09:15:55;;;;;;;4.03;2.90;;;;;;;;;;6208352;28;20019;-82
2022/08/14 09:18:55;;;;;;;5.03;4.00;;;;;;;;;;6206206;28;20749;-83
2022/08/14 09:21:55;;;;;;;8.20;4.33;;;;;;;;;;6198323;28;20041;-82
2022/08/14 09:24:56;;;;;;;7.73;3.60;;;;;;;;;;6197132;28;20015;-83
2022/08/14 09:27:56;;;;;;;7.57;3.87;;;;;;;;;;6192111;28;20427;-83
2022/08/14 09:30:57;;;;;;;6.90;5.23;;;;;;;;;;6196614;28;20033;-83
2022/08/14 09:33:57;;;;;;;;;;;;;;;;;;6197099;28;20022;-83
2022/08/14 09:37:07;;;;;;;4.53;3.05;;;;;;;;;;6193461;28;19906;-84
2022/08/14 09:40:19;;;;;;;3.65;2.42;;;;;;;;;;6193568;28;20080;-83
2022/08/14 09:43:41;;;;;;;6.25;4.55;;;;;;;;;;6195833;28;20030;-83
2022/08/14 09:46:51;;;;;;;8.35;5.03;;;;;;;;;;6193459;28;20019;-82
2022/08/14 09:49:52;;;;;;;5.32;4.07;;;;;;;;;;6192530;28;20065;-82
2022/08/14 09:52:52;;;;;;;;;;;;;;;;;;6195751;28;20021;-82
2022/08/14 09:55:59;;;;;;;5.40;2.72;;;;;;;;;;6194483;28;19914;-82
2022/08/14 09:59:13;;;;;;;6.15;3.67;;;;;;;;;;6192970;28;20483;-83
2022/08/14 10:02:22;;;;;;;4.63;2.47;;;;;;;;;;6187762;28;20019;-83
2022/08/14 10:05:28;;;;;;;4.78;3.15;;;;;;;;;;6195596;28;20030;-83
2022/08/14 10:08:38;;;;;;;4.30;2.90;;;;;;;;;;6192888;28;20014;-82
2022/08/14 10:11:39;;;;;;;2.83;2.15;;;;;;;;;;6197387;28;20029;-83
2022/08/14 10:14:40;;;;;;;3.58;2.42;;;;;;;;;;6195212;28;20035;-83
2022/08/14 10:17:40;;;;;;;3.60;2.70;;;;;;;;;;6194350;28;20018;-82
2022/08/14 10:20:43;;;;;;;4.33;2.67;;;;;;;;;;6193184;28;20487;-83
2022/08/14 10:23:48;;;;;;;5.80;3.28;;;;;;;;;;6195396;28;20025;-83
2022/08/14 10:26:53;;;;;;;5.20;4.13;;;;;;;;;;6185357;28;20023;-82
2022/08/14 10:29:54;;;;;;;7.97;4.43;;;;;;;;;;6196230;28;20026;-82
2022/08/14 10:32:54;;;;;;;4.90;3.75;;;;;;;;;;6196527;28;20022;-82
2022/08/14 10:35:55;;;;;;;6.23;4.40;;;;;;;;;;6190878;28;20066;-82
2022/08/14 10:38:57;;;;;;;8.45;5.80;;;;;;;;;;6195281;28;20129;-82
2022/08/14 10:42:04;;;;;;;8.93;6.97;;;;;;;;;;6196880;28;20070;-82
2022/08/14 10:45:19;;;;;;;6.65;4.97;;;;;;;;;;6203515;28;20054;-82
2022/08/14 10:48:20;;;;;;;7.20;5.55;;;;;;;;;;6195598;28;20126;-83
2022/08/14 10:51:25;;;;;;;7.63;5.05;;;;;;;;;;6194074;28;20386;-82
2022/08/14 10:54:36;;;;;;;7.25;4.68;;;;;;;;;;6199192;28;20561;-82
2022/08/14 10:57:49;;;;;;;9.45;5.55;;;;;;;;;;6194981;28;20077;-82
2022/08/14 11:00:55;;;;;;;8.57;5.97;;;;;;;;;;6189396;28;20031;-82
2022/08/14 11:03:58;;;;;;;8.30;3.83;;;;;;;;;;6191333;28;20018;-82
2022/08/14 11:07:04;;;;;;;8.52;4.75;;;;;;;;;;6194449;28;20537;-82
2022/08/14 11:10:08;;;;;;;6.95;4.60;;;;;;;;;;6191540;28;20027;-82
2022/08/14 11:13:23;;;;;;;6.10;5.13;;;;;;;;;;6199192;28;20038;-83
2022/08/14 11:16:29;;;;;;;6.13;4.63;;;;;;;;;;6197925;28;20027;-82
2022/08/14 11:19:39;;;;;;;8.07;5.95;;;;;;;;;;6194907;28;20030;-83
2022/08/14 11:22:48;;;;;;;7.68;5.22;;;;;;;;;;6189615;28;20073;-82
2022/08/14 11:26:01;;;;;;;8.35;5.05;;;;;;;;;;6195602;28;20046;-83
2022/08/14 11:29:10;;;;;;;8.77;5.30;;;;;;;;;;6196287;28;20030;-82
2022/08/14 11:32:10;;;;;;;7.97;5.23;;;;;;;;;;6194749;28;20037;-83
2022/08/14 11:35:15;;;;;;;10.70;6.40;;;;;;;;;;6197855;28;20037;-82
2022/08/14 11:38:18;;;;;;;5.88;5.22;;;;;;;;;;6196183;28;20079;-82
2022/08/14 11:41:19;;;;;;;8.30;4.63;;;;;;;;;;6195790;28;20025;-83
2022/08/14 11:44:19;;;;;;;;;;;;;;;;;;6196743;28;20014;-83
2022/08/14 11:47:19;;;;;;;10.60;5.07;;;;;;;;;;6194728;28;19910;-83
2022/08/14 11:50:19;;;;;;;;;;;;;;;;;;6198456;28;20033;-83
2022/08/14 11:53:25;;;;;;;26.50;24.13;;;;;;;;;;6199991;28;19999;-83
2022/08/14 11:56:33;;;;;;;6.35;5.15;;;;;;;;;;6196410;28;20297;-83
2022/08/14 11:59:33;;;;;;;5.63;4.70;;;;;;;;;;6197441;28;20018;-83
2022/08/14 12:02:33;;;;;;;;;;;;;;;;;;6193405;28;20050;-83
2022/08/14 12:05:38;;;;;;;6.70;4.40;;;;;;;;;;6197467;28;19996;-83
2022/08/14 12:08:39;;;;;;;11.15;5.72;;;;;;;;;;6192894;28;20026;-83
2022/08/14 12:11:39;;;;;;;;;;;;;;;;;;6194954;28;20033;-83
2022/08/14 12:14:56;;;;;;;6.53;4.68;;;;;;;;;;6193692;28;19905;-83
2022/08/14 12:17:58;;;;;;;7.72;5.43;;;;;;;;;;6188724;28;20025;-83
2022/08/14 12:21:18;;;;;;;8.25;4.97;;;;;;;;;;6193722;28;20026;-83
2022/08/14 12:24:26;;;;;;;9.07;5.55;;;;;;;;;;6191060;28;20887;-82
2022/08/14 12:27:36;;;;;;;9.68;5.43;;;;;;;;;;6193153;28;20578;-84
2022/08/14 12:30:38;;;;;;;8.48;5.00;;;;;;;;;;6193062;28;20395;-83
2022/08/14 12:33:39;;;;;;;8.48;5.40;;;;;;;;;;6198737;28;20434;-82
2022/08/14 12:36:39;;;;;;;11.10;5.87;;;;;;;;;;6197662;28;20045;-82
2022/08/14 12:39:39;;;;;;;7.00;5.00;;;;;;;;;;6190999;28;20405;-82
2022/08/14 12:42:40;;;;;;;8.37;5.30;;;;;;;;;;6194054;28;20121;-82
2022/08/14 12:45:42;;;;;;;;;;;;;;;;;;6191224;28;20023;-83
2022/08/14 12:48:45;;;;;;;9.20;5.13;;;;;;;;;;6194493;28;19925;-82
2022/08/14 12:51:58;;;;;;;7.28;4.50;;;;;;;;;;6190766;28;20138;-82
2022/08/14 12:55:03;;;;;;;8.05;4.97;;;;;;;;;;6192072;28;20038;-83
2022/08/14 12:58:04;;;;;;;7.85;5.13;;;;;;;;;;6193317;28;20406;-83
2022/08/14 13:01:07;;;;;;;7.45;5.32;;;;;;;;;;6192395;28;20485;-83
2022/08/14 13:04:17;;;;;;;9.77;5.32;;;;;;;;;;6191140;28;20096;-83
2022/08/14 13:07:17;;;;;;;6.63;4.70;;;;;;;;;;6193690;28;20029;-84
2022/08/14 13:10:19;;;;;;;7.70;4.50;;;;;;;;;;6194501;28;20022;-84
2022/08/14 13:13:19;;;;;;;7.50;4.88;;;;;;;;;;6190834;28;20018;-83
2022/08/14 13:16:20;;;;;;;8.23;4.37;;;;;;;;;;6182548;28;20026;-83
2022/08/14 13:19:21;;;;;;;6.25;4.25;;;;;;;;;;6192096;28;20027;-83
2022/08/14 13:22:27;;;;;;;7.07;4.38;;;;;;;;;;6198076;28;20023;-83
2022/08/14 13:25:28;;;;;;;7.53;4.22;;;;;;;;;;6196396;28;20444;-83
2022/08/14 13:28:28;;;;;;;7.72;4.63;;;;;;;;;;6197440;28;20019;-83
2022/08/14 13:31:29;;;;;;;6.13;3.83;;;;;;;;;;6195351;28;20025;-83
2022/08/14 13:34:29;;;;;;;8.27;4.38;;;;;;;;;;6190389;28;20112;-83
2022/08/14 13:37:30;;;;;;;6.70;4.37;;;;;;;;;;6181074;28;20046;-83
2022/08/14 13:40:30;;;;;;;6.80;4.65;;;;;;;;;;6176055;28;20029;-83
2022/08/14 13:43:31;;;;;;;6.30;4.53;;;;;;;;;;6191876;28;20036;-83
2022/08/14 13:46:31;;;;;;;9.27;4.57;;;;;;;;;;6189190;28;20030;-83
2022/08/14 13:49:32;;;;;;;6.67;4.40;;;;;;;;;;6194301;28;20015;-83
2022/08/14 13:52:37;;;;;;;6.85;4.50;;;;;;;;;;6193803;28;20269;-83
2022/08/14 13:55:38;;;;;;;7.25;4.88;;;;;;;;;;6195981;28;20022;-83
2022/08/14 13:58:40;;;;;;;7.05;4.55;;;;;;;;;;6195590;28;20050;-84
2022/08/14 14:01:44;;;;;;;6.72;4.70;;;;;;;;;;6196292;28;20026;-84
2022/08/14 14:04:46;;;;;;;6.55;4.55;;;;;;;;;;6196060;28;20093;-83
2022/08/14 14:07:48;;;;;;;7.07;4.85;;;;;;;;;;6214933;28;20018;-83
2022/08/14 14:10:54;;;;;;;7.53;4.80;;;;;;;;;;6198619;28;20077;-83
2022/08/14 14:13:55;;;;;;;9.45;5.43;;;;;;;;;;6199280;28;20023;-83
2022/08/14 14:16:56;;;;;;;7.72;3.80;;;;;;;;;;6201147;28;20033;-83
2022/08/14 14:19:59;;;;;;;10.70;5.10;;;;;;;;;;6194824;28;20080;-82
2022/08/14 14:23:00;;;;;;;9.15;4.40;;;;;;;;;;6192543;28;20035;-83
2022/08/14 14:26:01;;;;;;;6.28;4.55;;;;;;;;;;6208860;28;20022;-83
2022/08/14 14:29:05;;;;;;;5.40;3.58;;;;;;;;;;6194223;28;20019;-83
2022/08/14 14:32:06;;;;;;;8.57;4.88;;;;;;;;;;6202937;28;20034;-83
2022/08/14 14:35:09;;;;;;;7.60;5.07;;;;;;;;;;6190034;28;20033;-83
2022/08/14 14:38:13;;;;;;;6.97;4.28;;;;;;;;;;6202040;28;20039;-83
2022/08/14 14:41:13;;;;;;;6.15;4.65;;;;;;;;;;6193421;28;20026;-83
2022/08/14 14:44:14;;;;;;;;;;;;;;;;;;6198204;28;20011;-83
2022/08/14 14:47:16;;;;;;;6.90;3.40;;;;;;;;;;6194205;28;19976;-83
2022/08/14 14:50:16;;;;;;;4.70;3.58;;;;;;;;;;6198536;28;20030;-83
2022/08/14 14:53:16;;;;;;;;;;;;;;;;;;6198520;28;20143;-83
2022/08/14 14:56:18;;;;;;;7.00;3.75;;;;;;;;;;6184432;28;20387;-83
2022/08/14 14:59:18;;;;;;;5.50;3.95;;;;;;;;;;6192817;28;20026;-83
2022/08/14 15:02:31;;;;;;;6.78;4.63;;;;;;;;;;6189231;28;20026;-84
2022/08/14 15:05:31;;;;;;;8.02;3.72;;;;;;;;;;6195248;28;20022;-83
2022/08/14 15:08:31;;;;;;;;;;;;;;;;;;6199318;28;20006;-83
2022/08/14 15:11:32;;;;;;;7.18;4.40;;;;;;;;;;6182808;28;19913;-83
2022/08/14 15:14:32;;;;;;;5.90;3.50;;;;;;;;;;6190002;28;20049;-82
2022/08/14 15:17:35;;;;;;;6.20;3.80;;;;;;;;;;6197898;28;20050;-82
2022/08/14 15:20:35;;;;;;;9.18;4.15;;;;;;;;;;6189657;28;20030;-83
2022/08/14 15:23:35;;;;;;;7.43;4.47;;;;;;;;;;6199829;28;20053;-83
2022/08/14 15:26:36;;;;;;;10.30;4.43;;;;;;;;;;6180656;28;20030;-83
2022/08/14 15:29:39;;;;;;;7.07;4.45;;;;;;;;;;6200243;28;20078;-83
2022/08/14 15:32:39;;;;;;;4.97;3.50;;;;;;;;;;6193783;28;20106;-83
2022/08/14 15:35:39;;;;;;;7.90;4.20;;;;;;;;;;6194717;28;20027;-83
2022/08/14 15:38:40;;;;;;;6.65;4.32;;;;;;;;;;6194859;28;20024;-83
2022/08/14 15:41:40;;;;;;;6.33;4.27;;;;;;;;;;6190944;28;20030;-83
2022/08/14 15:44:41;;;;;;;6.63;4.40;;;;;;;;;;6197802;28;20052;-83
2022/08/14 15:47:41;;;;;;;8.88;5.07;;;;;;;;;;6179295;28;20015;-82
2022/08/14 15:50:43;;;;;;;7.72;4.68;;;;;;;;;;6180127;28;20118;-83
2022/08/14 15:53:43;;;;;;;6.88;4.93;;;;;;;;;;6183625;28;20093;-82
2022/08/14 15:56:44;;;;;;;8.67;5.60;;;;;;;;;;6190770;28;20045;-82
2022/08/14 16:03:03;;;;;;;7.07;4.60;;;;;;;;;;6191182;28;20026;-83
2022/08/14 16:06:05;;;;;;;8.73;5.32;;;;;;;;;;6199772;28;20057;-84
2022/08/14 16:09:05;;;;;;;9.05;5.35;;;;;;;;;;6196930;28;20391;-83
2022/08/14 16:12:06;;;;;;;7.47;5.27;;;;;;;;;;6193765;28;20030;-83
2022/08/14 16:15:06;;;;;;;6.93;4.20;;;;;;;;;;6196570;28;20026;-83
2022/08/14 16:18:17;;;;;;;6.90;4.30;;;;;;;;;;6199062;28;20056;-83
2022/08/14 16:21:18;;;;;;;8.20;5.00;;;;;;;;;;6208606;28;20041;-83
2022/08/14 16:24:19;;;;;;;9.75;6.35;;;;;;;;;;6196112;28;20501;-82
2022/08/14 16:27:20;;;;;;;8.70;5.67;;;;;;;;;;6192223;28;20019;-83
2022/08/14 16:30:20;;;;;;;7.82;5.35;;;;;;;;;;6192436;28;20080;-82
2022/08/14 16:33:21;;;;;;;8.83;5.03;;;;;;;;;;6192576;28;20019;-83
2022/08/14 16:36:22;;;;;;;10.07;5.13;;;;;;;;;;6190952;28;20026;-82
2022/08/14 16:39:22;;;;;;;8.65;5.07;;;;;;;;;;6195842;28;20037;-82
2022/08/14 16:42:24;;;;;;;11.70;5.93;;;;;;;;;;6190636;28;20018;-82
2022/08/14 16:45:25;;;;;;;7.82;5.40;;;;;;;;;;6196270;28;20475;-82
2022/08/14 16:48:29;;;;;;;8.90;5.93;;;;;;;;;;6194411;28;20022;-84
2022/08/14 16:51:29;;;;;;;8.70;5.55;;;;;;;;;;6198317;28;20434;-82
2022/08/14 16:54:31;;;;;;;8.68;5.72;;;;;;;;;;6192729;28;20014;-83
2022/08/14 16:57:31;;;;;;;9.52;6.22;;;;;;;;;;6193748;28;20042;-82
2022/08/14 17:00:37;;;;;;;7.80;5.35;;;;;;;;;;6197909;28;20219;-82
2022/08/14 17:03:57;;;;;;;10.02;5.55;;;;;;;;;;6206697;28;20475;-82
2022/08/14 17:06:59;;;;;;;10.27;6.03;;;;;;;;;;6193912;28;20494;-82
2022/08/14 17:10:05;;;;;;;9.05;5.78;;;;;;;;;;6197310;28;20029;-83
2022/08/14 17:13:23;;;;;;;7.47;5.80;;;;;;;;;;6192721;28;20536;-82
2022/08/14 17:16:24;;;;;;;8.60;6.07;;;;;;;;;;6188481;28;20176;-82
2022/08/14 17:19:24;;;;;;;10.75;6.28;;;;;;;;;;6188784;28;20018;-82
2022/08/14 17:22:40;;;;;;;10.30;6.90;;;;;;;;;;6186944;28;20019;-82
2022/08/14 17:25:40;;;;;;;15.20;7.90;;;;;;;;;;6193664;28;20033;-82
2022/08/14 17:28:41;;;;;;;13.10;7.40;;;;;;;;;;6188577;28;20058;-83
2022/08/14 17:31:42;;;;;;;12.30;8.20;;;;;;;;;;6191795;28;20014;-82
2022/08/14 17:34:50;;;;;;;14.35;8.80;;;;;;;;;;6193954;28;20026;-83
2022/08/14 17:37:52;;;;;;;11.15;7.57;;;;;;;;;;6195603;28;20027;-83
2022/08/14 17:41:20;;;;;;;16.85;9.68;;;;;;;;;;6179153;28;20038;-82
2022/08/14 17:44:12;;;;;;;14.15;9.02;;;;;;;;;;6203773;28;20089;-82
2022/08/14 17:47:14;;;;;;;14.80;9.87;;;;;;;;;;6199532;28;20023;-82
2022/08/14 17:50:14;;;;;;;15.00;9.32;;;;;;;;;;6202847;28;20026;-82
2022/08/14 17:53:17;;;;;;;12.50;9.13;;;;;;;;;;6195680;28;20445;-82
2022/08/14 17:56:17;;;;;;;14.00;9.52;;;;;;;;;;6200398;28;20046;-82
2022/08/14 17:59:19;;;;;;;12.97;8.43;;;;;;;;;;6194722;28;20030;-82
2022/08/14 18:02:25;;;;;;;11.80;8.73;;;;;;;;;;6197561;28;20049;-83
2022/08/14 18:05:27;;;;;;;13.45;9.43;;;;;;;;;;6195707;28;20030;-83
2022/08/14 18:08:27;;;;;;;16.75;10.95;;;;;;;;;;6200595;28;20382;-82
2022/08/14 18:11:27;;;;;;;15.73;9.30;;;;;;;;;;6206172;28;20081;-82
2022/08/14 18:14:28;;;;;;;14.47;8.97;;;;;;;;;;6206250;28;20476;-83
2022/08/14 18:17:29;;;;;;;13.13;8.90;;;;;;;;;;6202163;28;20030;-82
2022/08/14 18:20:30;;;;;;;15.25;9.68;;;;;;;;;;6205791;28;20037;-82